createdAt,value
2022-09-13T00:00:07.619Z,61.90
2022-09-13T00:01:41.279Z,62.00
2022-09-13T00:03:15.119Z,62.10
2022-09-13T00:04:48.363Z,62.20
2022-09-13T00:06:22.895Z,62.30
2022-09-13T00:07:55.704Z,62.40
2022-09-13T00:09:28.955Z,62.60
2022-09-13T00:11:01.474Z,62.70
2022-09-13T00:12:36.083Z,62.90
2022-09-13T00:14:09.400Z,63.00
2022-09-13T00:15:44.587Z,63.00
2022-09-13T00:17:18.116Z,63.20
2022-09-13T00:18:51.114Z,63.20
2022-09-13T00:20:27.039Z,63.40
2022-09-13T00:22:00.630Z,63.50
2022-09-13T00:23:34.263Z,63.50
2022-09-13T00:25:08.773Z,63.30
2022-09-13T00:26:42.223Z,63.50
2022-09-13T00:28:16.842Z,63.40
2022-09-13T00:29:50.032Z,63.30
2022-09-13T00:31:27.456Z,63.40
2022-09-13T00:33:04.327Z,63.50
2022-09-13T00:34:37.505Z,63.30
2022-09-13T00:36:12.144Z,63.50
2022-09-13T00:37:45.436Z,63.40
2022-09-13T00:39:18.994Z,63.50
2022-09-13T00:40:52.357Z,63.60
2022-09-13T00:42:27.590Z,63.40
2022-09-13T00:44:04.602Z,63.40
2022-09-13T00:45:38.944Z,63.40
2022-09-13T00:47:15.543Z,63.20
2022-09-13T00:48:51.935Z,63.20
2022-09-13T00:50:30.763Z,63.20
2022-09-13T00:52:09.827Z,63.20
2022-09-13T00:53:50.338Z,63.20
2022-09-13T00:55:30.203Z,63.40
2022-09-13T00:57:06.488Z,63.40
2022-09-13T00:58:47.074Z,63.30
2022-09-13T01:00:24.962Z,63.50
2022-09-13T01:02:07.522Z,63.50
2022-09-13T01:03:49.501Z,63.70
2022-09-13T01:05:33.634Z,63.80
2022-09-13T01:07:15.743Z,63.90
2022-09-13T01:08:56.843Z,64.00
2022-09-13T01:10:33.792Z,64.10
2022-09-13T01:12:19.631Z,64.10
2022-09-13T01:13:58.269Z,64.20
2022-09-13T01:15:37.565Z,64.30
2022-09-13T01:17:12.918Z,64.50
2022-09-13T01:18:47.278Z,64.40
2022-09-13T01:20:24.098Z,64.50
2022-09-13T01:23:12.409Z,64.70
2022-09-13T01:26:00.830Z,65.20
2022-09-13T01:28:04.463Z,65.10
2022-09-13T01:30:20.735Z,64.80
2022-09-13T01:32:07.351Z,64.80
2022-09-13T01:33:56.128Z,64.70
2022-09-13T01:35:44.198Z,64.80
2022-09-13T01:37:45.456Z,65.00
2022-09-13T01:39:35.381Z,65.40
2022-09-13T01:41:28.088Z,65.20
2022-09-13T01:43:23.601Z,65.20
2022-09-13T01:45:10.890Z,65.20
2022-09-13T01:46:54.699Z,65.20
2022-09-13T01:48:50.629Z,65.20
2022-09-13T01:50:39.991Z,65.30
2022-09-13T01:52:26.649Z,65.20
2022-09-13T01:54:16.540Z,65.30
2022-09-13T01:55:58.779Z,65.40
2022-09-13T01:57:42.252Z,65.30
2022-09-13T01:59:23.746Z,65.40
2022-09-13T02:01:09.532Z,65.50
2022-09-13T02:02:52.732Z,66.40
2022-09-13T02:04:36.818Z,65.80
2022-09-13T02:06:16.622Z,65.60
2022-09-13T02:07:59.840Z,65.70
2022-09-13T02:09:41.251Z,65.70
2022-09-13T02:11:17.219Z,65.60
2022-09-13T02:12:55.175Z,65.40
2022-09-13T02:14:36.308Z,65.60
2022-09-13T02:16:17.386Z,65.50
2022-09-13T02:18:01.228Z,65.50
2022-09-13T02:19:41.455Z,66.40
2022-09-13T02:21:22.379Z,65.60
2022-09-13T02:22:59.266Z,65.60
2022-09-13T02:24:37.783Z,65.40
2022-09-13T02:26:16.166Z,65.40
2022-09-13T02:27:58.847Z,65.50
2022-09-13T02:29:37.583Z,65.40
2022-09-13T02:31:13.930Z,65.50
2022-09-13T02:32:57.043Z,65.30
2022-09-13T02:34:38.005Z,65.30
2022-09-13T02:36:16.466Z,65.40
2022-09-13T02:37:58.182Z,65.30
2022-09-13T02:39:36.540Z,65.30
2022-09-13T02:41:17.890Z,65.50
2022-09-13T02:42:59.891Z,65.50
2022-09-13T02:44:37.709Z,65.50
2022-09-13T02:46:28.839Z,65.40
2022-09-13T02:48:13.467Z,65.60
2022-09-13T02:49:58.858Z,65.40
2022-09-13T02:51:46.052Z,65.50
2022-09-13T02:53:31.437Z,65.70
2022-09-13T02:55:18.766Z,65.70
2022-09-13T02:57:00.082Z,65.60
2022-09-13T02:58:44.930Z,65.80
2022-09-13T03:00:18.165Z,66.50
2022-09-13T03:01:59.816Z,65.60
2022-09-13T03:03:34.723Z,65.70
2022-09-13T03:05:08.926Z,65.80
2022-09-13T03:06:41.878Z,65.70
2022-09-13T03:08:18.245Z,65.80
2022-09-13T03:09:57.137Z,65.90
2022-09-13T03:11:53.900Z,65.90
2022-09-13T03:14:02.545Z,66.10
2022-09-13T03:15:59.556Z,66.30
2022-09-13T03:17:53.485Z,66.30
2022-09-13T03:19:48.228Z,66.30
2022-09-13T03:21:46.601Z,66.40
2022-09-13T03:23:53.161Z,66.40
2022-09-13T03:26:00.925Z,66.30
2022-09-13T03:27:46.529Z,66.40
2022-09-13T03:29:32.176Z,66.40
2022-09-13T03:31:12.303Z,66.30
2022-09-13T03:32:54.170Z,66.30
2022-09-13T03:34:42.941Z,66.30
2022-09-13T03:36:26.258Z,66.30
2022-09-13T03:38:09.922Z,66.50
2022-09-13T03:39:49.581Z,66.70
2022-09-13T03:41:32.188Z,66.50
2022-09-13T03:43:13.875Z,66.80
2022-09-13T03:44:51.837Z,66.80
2022-09-13T03:46:32.446Z,66.90
2022-09-13T03:48:07.737Z,67.00
2022-09-13T03:49:43.038Z,67.10
2022-09-13T03:51:16.992Z,67.00
2022-09-13T03:52:59.256Z,67.00
2022-09-13T03:54:34.009Z,67.20
2022-09-13T03:56:14.864Z,67.40
2022-09-13T03:57:48.308Z,67.50
2022-09-13T03:59:22.596Z,67.40
2022-09-13T04:00:56.171Z,67.50
2022-09-13T04:02:30.274Z,67.70
2022-09-13T04:04:04.448Z,67.50
2022-09-13T04:05:39.200Z,67.70
2022-09-13T04:07:15.185Z,67.60
2022-09-13T04:08:48.521Z,67.70
2022-09-13T04:10:24.156Z,67.70
2022-09-13T04:11:56.692Z,67.80
2022-09-13T04:13:30.210Z,67.70
2022-09-13T04:15:03.709Z,67.80
2022-09-13T04:16:37.060Z,67.80
2022-09-13T04:18:11.455Z,67.90
2022-09-13T04:19:47.008Z,67.90
2022-09-13T04:21:21.910Z,67.90
2022-09-13T04:22:56.396Z,67.80
2022-09-13T04:24:31.139Z,67.90
2022-09-13T04:26:06.824Z,67.90
2022-09-13T04:27:40.065Z,68.00
2022-09-13T04:29:12.601Z,67.90
2022-09-13T04:30:46.745Z,67.90
2022-09-13T04:32:20.136Z,67.90
2022-09-13T04:33:55.085Z,67.90
2022-09-13T04:35:29.077Z,68.00
2022-09-13T04:37:04.257Z,68.10
2022-09-13T04:38:37.726Z,68.40
2022-09-13T04:40:11.423Z,68.30
2022-09-13T04:41:47.124Z,68.30
2022-09-13T04:43:20.652Z,68.20
2022-09-13T04:44:54.753Z,68.20
2022-09-13T04:46:28.169Z,68.30
2022-09-13T04:48:02.280Z,68.20
2022-09-13T04:49:34.697Z,68.20
2022-09-13T04:51:08.020Z,68.20
2022-09-13T04:52:42.610Z,68.30
2022-09-13T04:54:16.675Z,68.40
2022-09-13T04:55:49.898Z,68.50
2022-09-13T04:57:25.249Z,68.40
2022-09-13T04:58:58.491Z,68.50
2022-09-13T05:00:32.493Z,68.50
2022-09-13T05:02:06.235Z,68.60
2022-09-13T05:03:40.055Z,68.70
2022-09-13T05:05:13.334Z,68.70
2022-09-13T05:06:48.372Z,68.70
2022-09-13T05:08:24.008Z,68.70
2022-09-13T05:09:57.297Z,68.70
2022-09-13T05:11:31.608Z,68.70
2022-09-13T05:13:04.870Z,68.80
2022-09-13T05:14:38.414Z,68.70
2022-09-13T05:16:11.858Z,68.90
2022-09-13T05:17:45.316Z,68.90
2022-09-13T05:19:18.832Z,68.90
2022-09-13T05:20:54.658Z,69.10
2022-09-13T05:22:27.945Z,69.20
2022-09-13T05:24:03.440Z,69.20
2022-09-13T05:25:36.926Z,69.30
2022-09-13T05:27:11.336Z,69.20
2022-09-13T05:28:45.161Z,70.00
2022-09-13T05:30:18.770Z,69.20
2022-09-13T05:31:52.691Z,69.20
2022-09-13T05:33:26.422Z,69.10
2022-09-13T05:35:00.086Z,69.20
2022-09-13T05:36:33.433Z,69.20
2022-09-13T05:38:05.721Z,69.20
2022-09-13T05:40:07.375Z,69.30
2022-09-13T05:41:33.874Z,69.40
2022-09-13T05:43:07.386Z,69.30
2022-09-13T05:44:41.462Z,69.40
2022-09-13T05:46:17.166Z,69.40
2022-09-13T05:47:52.766Z,69.40
2022-09-13T05:49:26.195Z,69.40
2022-09-13T05:51:07.145Z,69.40
2022-09-13T05:52:40.370Z,69.70
2022-09-13T05:54:14.441Z,69.50
2022-09-13T05:55:49.789Z,69.60
2022-09-13T05:57:23.129Z,70.50
2022-09-13T05:58:57.265Z,69.70
2022-09-13T06:00:31.704Z,69.80
2022-09-13T06:02:05.170Z,69.80
2022-09-13T06:03:38.568Z,69.80
2022-09-13T06:05:12.590Z,69.80
2022-09-13T06:06:46.616Z,69.90
2022-09-13T06:08:19.960Z,70.00
2022-09-13T06:09:53.399Z,70.10
2022-09-13T06:11:28.880Z,70.10
2022-09-13T06:13:02.402Z,70.30
2022-09-13T06:14:35.704Z,70.20
2022-09-13T06:16:11.895Z,70.30
2022-09-13T06:17:45.804Z,70.40
2022-09-13T06:19:19.193Z,70.40
2022-09-13T06:20:58.340Z,70.40
2022-09-13T06:22:35.361Z,70.50
2022-09-13T06:24:09.249Z,70.50
2022-09-13T06:25:43.646Z,70.60
2022-09-13T06:27:18.853Z,70.60
2022-09-13T06:28:55.127Z,70.60
2022-09-13T06:30:28.485Z,70.70
2022-09-13T06:32:02.629Z,70.80
2022-09-13T06:33:38.321Z,71.00
2022-09-13T06:35:12.093Z,71.10
2022-09-13T06:36:45.591Z,71.10
2022-09-13T06:38:18.816Z,71.20
2022-09-13T06:39:52.287Z,71.10
2022-09-13T06:41:27.353Z,71.20
2022-09-13T06:43:02.769Z,71.20
2022-09-13T06:44:36.576Z,71.10
2022-09-13T06:46:12.828Z,71.10
2022-09-13T06:47:46.322Z,71.20
2022-09-13T06:49:19.677Z,71.20
2022-09-13T06:50:53.349Z,71.40
2022-09-13T06:52:27.768Z,71.30
2022-09-13T06:54:04.034Z,71.30
2022-09-13T06:55:37.236Z,71.30
2022-09-13T06:57:11.044Z,71.40
2022-09-13T06:58:48.702Z,71.40
2022-09-13T07:00:21.573Z,71.60
2022-09-13T07:01:55.466Z,71.50
2022-09-13T07:03:28.780Z,71.30
2022-09-13T07:05:02.164Z,71.20
2022-09-13T07:06:39.101Z,71.20
2022-09-13T07:08:12.613Z,71.30
2022-09-13T07:09:45.901Z,71.20
2022-09-13T07:11:20.567Z,71.20
2022-09-13T07:12:53.759Z,71.40
2022-09-13T07:14:30.456Z,71.40
2022-09-13T07:16:06.373Z,71.50
2022-09-13T07:17:39.646Z,71.50
2022-09-13T07:19:17.161Z,71.40
2022-09-13T07:20:49.610Z,71.70
2022-09-13T07:22:26.977Z,71.60
2022-09-13T07:24:00.776Z,71.60
2022-09-13T07:25:34.001Z,71.60
2022-09-13T07:27:07.373Z,71.60
2022-09-13T07:28:43.896Z,71.50
2022-09-13T07:30:18.665Z,71.30
2022-09-13T07:31:54.980Z,71.10
2022-09-13T07:33:27.888Z,71.00
2022-09-13T07:35:01.406Z,70.90
2022-09-13T07:36:37.517Z,70.70
2022-09-13T07:38:09.877Z,70.70
2022-09-13T07:39:43.432Z,70.80
2022-09-13T07:41:19.748Z,70.70
2022-09-13T07:42:53.265Z,70.70
2022-09-13T07:44:27.071Z,70.70
2022-09-13T07:46:04.333Z,70.80
2022-09-13T07:47:37.896Z,71.20
2022-09-13T07:49:13.660Z,71.00
2022-09-13T07:50:59.538Z,71.10
2022-09-13T07:52:36.380Z,71.20
2022-09-13T07:54:14.098Z,71.10
2022-09-13T07:55:47.402Z,71.20
2022-09-13T07:57:21.156Z,71.20
2022-09-13T07:58:55.882Z,71.20
2022-09-13T08:00:29.880Z,71.50
2022-09-13T08:02:04.780Z,71.50
2022-09-13T08:03:38.636Z,71.60
2022-09-13T08:05:12.181Z,71.10
2022-09-13T08:06:46.695Z,71.20
2022-09-13T08:08:20.547Z,70.90
2022-09-13T08:09:56.255Z,70.50
2022-09-13T08:11:37.085Z,70.40
2022-09-13T08:13:10.355Z,70.10
2022-09-13T08:14:43.964Z,70.10
2022-09-13T08:16:19.264Z,70.40
2022-09-13T08:17:54.670Z,69.50
2022-09-13T08:19:28.496Z,69.20
2022-09-13T08:21:02.834Z,69.10
2022-09-13T08:22:36.168Z,68.70
2022-09-13T08:24:16.036Z,68.60
2022-09-13T08:25:48.385Z,68.80
2022-09-13T08:27:21.883Z,68.50
2022-09-13T08:29:01.951Z,67.80
2022-09-13T08:30:37.149Z,67.10
2022-09-13T08:32:10.988Z,66.90
2022-09-13T08:33:48.446Z,66.40
2022-09-13T08:35:22.368Z,66.50
2022-09-13T08:36:55.960Z,66.70
2022-09-13T08:38:29.016Z,67.20
2022-09-13T08:40:02.889Z,67.70
2022-09-13T08:42:11.263Z,68.00
2022-09-13T08:43:55.784Z,66.50
2022-09-13T08:45:29.697Z,65.70
2022-09-13T08:47:32.141Z,65.50
2022-09-13T08:49:16.313Z,64.40
2022-09-13T08:50:54.897Z,63.90
2022-09-13T08:52:35.193Z,63.60
2022-09-13T08:54:13.027Z,62.80
2022-09-13T08:55:57.822Z,62.60
2022-09-13T08:57:42.813Z,62.60
2022-09-13T08:59:39.670Z,63.10
2022-09-13T09:01:29.646Z,61.50
2022-09-13T09:03:21.776Z,61.30
2022-09-13T09:05:06.958Z,62.40
2022-09-13T09:06:40.445Z,63.20
2022-09-13T09:08:28.828Z,63.70
2022-09-13T09:10:12.669Z,63.60
2022-09-13T09:11:55.192Z,63.60
2022-09-13T09:13:36.025Z,61.50
2022-09-13T09:15:18.458Z,60.60
2022-09-13T09:16:58.560Z,59.70
2022-09-13T09:18:37.848Z,60.70
2022-09-13T09:20:25.888Z,60.70
2022-09-13T09:22:00.359Z,59.50
2022-09-13T09:23:55.258Z,60.80
2022-09-13T09:25:29.165Z,59.90
2022-09-13T09:27:11.017Z,59.70
2022-09-13T09:28:45.080Z,60.50
2022-09-13T09:30:17.841Z,59.80
2022-09-13T09:32:10.400Z,59.20
2022-09-13T09:34:09.860Z,58.40
2022-09-13T09:35:58.022Z,57.60
2022-09-13T09:37:32.508Z,58.30
2022-09-13T09:39:07.726Z,58.40
2022-09-13T09:40:41.815Z,57.90
2022-09-13T09:42:20.453Z,58.00
2022-09-13T09:44:03.819Z,57.70
2022-09-13T09:45:42.227Z,56.50
2022-09-13T09:47:27.214Z,56.20
2022-09-13T09:49:35.844Z,57.00
2022-09-13T09:51:14.014Z,56.10
2022-09-13T09:52:56.709Z,55.70
2022-09-13T09:54:31.492Z,55.40
2022-09-13T09:56:20.838Z,55.70
2022-09-13T09:57:58.224Z,55.10
2022-09-13T09:59:34.080Z,55.10
2022-09-13T10:01:20.830Z,54.50
2022-09-13T10:02:59.527Z,53.90
2022-09-13T10:04:33.147Z,53.80
2022-09-13T10:06:12.541Z,53.40
2022-09-13T10:07:53.233Z,52.80
2022-09-13T10:09:27.750Z,54.00
2022-09-13T10:11:02.956Z,53.60
2022-09-13T10:12:40.881Z,53.40
2022-09-13T10:14:39.483Z,52.30
2022-09-13T10:16:27.548Z,51.20
2022-09-13T10:18:43.016Z,49.90
2022-09-13T10:20:26.596Z,49.80
2022-09-13T10:22:05.684Z,50.80
2022-09-13T10:23:40.157Z,50.10
2022-09-13T10:25:17.573Z,51.00
2022-09-13T10:26:51.204Z,50.70
2022-09-13T10:28:26.516Z,50.80
2022-09-13T10:30:03.811Z,51.40
2022-09-13T10:31:41.079Z,51.60
2022-09-13T10:33:29.045Z,51.10
2022-09-13T10:35:16.876Z,50.00
2022-09-13T10:36:57.978Z,50.60
2022-09-13T10:38:35.853Z,50.40
2022-09-13T10:40:20.084Z,49.90
2022-09-13T10:41:59.021Z,49.20
2022-09-13T10:43:34.786Z,48.70
2022-09-13T10:45:20.492Z,48.80
2022-09-13T10:46:55.169Z,48.30
2022-09-13T10:48:32.213Z,48.20
2022-09-13T10:50:32.392Z,48.30
2022-09-13T10:52:32.749Z,47.80
2022-09-13T10:54:21.072Z,47.90
2022-09-13T10:55:55.433Z,49.10
2022-09-13T10:57:36.660Z,48.40
2022-09-13T10:59:25.263Z,47.80
2022-09-13T11:01:45.290Z,47.80
2022-09-13T11:03:40.005Z,47.90
2022-09-13T11:05:25.368Z,47.70
2022-09-13T11:07:18.514Z,48.00
2022-09-13T11:09:07.505Z,48.30
2022-09-13T11:10:57.037Z,47.40
2022-09-13T11:12:42.275Z,47.70
2022-09-13T11:14:42.923Z,48.10
2022-09-13T11:16:35.444Z,47.60
2022-09-13T11:18:44.329Z,47.30
2022-09-13T11:20:33.673Z,47.20
2022-09-13T11:22:37.604Z,46.50
2022-09-13T11:24:55.298Z,46.80
2022-09-13T11:26:53.071Z,47.20
2022-09-13T11:28:40.556Z,46.50
2022-09-13T11:30:19.481Z,45.60
2022-09-13T11:32:07.195Z,45.40
2022-09-13T11:33:58.695Z,45.20
2022-09-13T11:35:48.033Z,44.70
2022-09-13T11:37:44.979Z,45.30
2022-09-13T11:39:33.247Z,45.40
2022-09-13T11:41:28.376Z,45.30
2022-09-13T11:43:24.762Z,43.80
2022-09-13T11:45:21.888Z,44.60
2022-09-13T11:47:09.236Z,43.90
2022-09-13T11:49:02.848Z,43.50
2022-09-13T11:50:47.646Z,43.20
2022-09-13T11:52:34.955Z,43.30
2022-09-13T11:54:33.558Z,42.00
2022-09-13T11:56:12.591Z,41.20
2022-09-13T11:57:52.844Z,42.40
2022-09-13T11:59:39.340Z,42.10
2022-09-13T12:01:21.532Z,42.20
2022-09-13T12:03:07.795Z,41.10
2022-09-13T12:05:11.328Z,40.70
2022-09-13T12:06:51.469Z,40.80
2022-09-13T12:08:30.573Z,41.10
2022-09-13T12:10:14.881Z,41.30
2022-09-13T12:11:55.793Z,40.70
2022-09-13T12:13:33.664Z,41.10
2022-09-13T12:15:18.021Z,40.30
2022-09-13T12:16:59.144Z,40.40
2022-09-13T12:18:39.237Z,40.00
2022-09-13T12:20:31.675Z,40.60
2022-09-13T12:22:07.630Z,40.50
2022-09-13T12:23:54.248Z,40.60
2022-09-13T12:25:40.199Z,40.30
2022-09-13T12:27:24.682Z,40.70
2022-09-13T12:29:03.820Z,40.70
2022-09-13T12:30:53.098Z,40.40
2022-09-13T12:32:28.996Z,39.30
2022-09-13T12:34:15.105Z,39.40
2022-09-13T12:36:06.896Z,39.90
2022-09-13T12:38:21.639Z,39.90
2022-09-13T12:40:17.592Z,39.50
2022-09-13T12:42:18.229Z,39.20
2022-09-13T12:44:19.836Z,39.20
2022-09-13T12:46:28.025Z,40.20
2022-09-13T12:48:21.718Z,40.20
2022-09-13T12:50:43.527Z,39.50
2022-09-13T12:52:36.531Z,39.50
2022-09-13T12:54:45.819Z,39.60
2022-09-13T12:56:43.246Z,38.40
2022-09-13T12:58:58.104Z,39.30
2022-09-13T13:00:35.200Z,39.30
2022-09-13T13:02:31.580Z,39.50
2022-09-13T13:04:16.821Z,39.10
2022-09-13T13:05:58.846Z,39.00
2022-09-13T13:07:38.090Z,38.80
2022-09-13T13:09:30.731Z,39.10
2022-09-13T13:11:09.660Z,39.00
2022-09-13T13:12:43.068Z,38.90
2022-09-13T13:14:53.753Z,38.70
2022-09-13T13:16:31.536Z,38.00
2022-09-13T13:18:25.997Z,38.60
2022-09-13T13:19:59.599Z,38.00
2022-09-13T13:21:37.682Z,38.30
2022-09-13T13:23:26.949Z,37.50
2022-09-13T13:25:38.006Z,37.30
2022-09-13T13:27:48.404Z,37.70
2022-09-13T13:29:24.270Z,38.30
2022-09-13T13:30:58.998Z,38.10
2022-09-13T13:32:32.382Z,37.40
2022-09-13T13:34:39.938Z,37.10
2022-09-13T13:36:24.753Z,36.70
2022-09-13T13:38:31.483Z,37.40
2022-09-13T13:40:29.000Z,36.70
2022-09-13T13:42:11.636Z,37.20
2022-09-13T13:43:44.963Z,37.50
2022-09-13T13:45:28.150Z,37.70
2022-09-13T13:48:02.709Z,36.80
2022-09-13T13:50:10.403Z,36.30
2022-09-13T13:51:43.715Z,36.50
2022-09-13T13:53:23.485Z,37.30
2022-09-13T13:55:04.295Z,37.30
2022-09-13T13:56:49.922Z,37.10
2022-09-13T13:58:38.464Z,36.60
2022-09-13T14:00:17.776Z,37.20
2022-09-13T14:01:59.299Z,36.80
2022-09-13T14:04:00.276Z,37.00
2022-09-13T14:05:45.783Z,37.20
2022-09-13T14:08:01.275Z,37.10
2022-09-13T14:09:49.097Z,36.80
2022-09-13T14:11:42.888Z,37.30
2022-09-13T14:13:41.776Z,36.70
2022-09-13T14:15:42.248Z,36.60
2022-09-13T14:17:58.105Z,36.80
2022-09-13T14:19:35.254Z,36.60
2022-09-13T14:21:24.872Z,37.00
2022-09-13T14:23:18.254Z,37.50
2022-09-13T14:24:53.837Z,36.20
2022-09-13T14:26:29.522Z,36.50
2022-09-13T14:28:03.472Z,36.50
2022-09-13T14:29:37.500Z,36.40
2022-09-13T14:31:20.273Z,36.90
2022-09-13T14:32:58.154Z,36.50
2022-09-13T14:34:36.194Z,36.60
2022-09-13T14:36:22.195Z,37.50
2022-09-13T14:37:57.278Z,36.80
2022-09-13T14:39:31.540Z,36.60
2022-09-13T14:41:15.926Z,36.50
2022-09-13T14:42:52.271Z,36.60
2022-09-13T14:44:29.031Z,36.40
2022-09-13T14:46:09.308Z,36.90
2022-09-13T14:47:53.277Z,36.60
2022-09-13T14:49:34.508Z,36.50
2022-09-13T14:51:19.264Z,37.20
2022-09-13T14:52:59.254Z,37.30
2022-09-13T14:54:38.761Z,37.40
2022-09-13T14:56:19.049Z,37.50
2022-09-13T14:57:58.724Z,37.80
2022-09-13T14:59:37.865Z,37.90
2022-09-13T15:01:15.439Z,38.00
2022-09-13T15:02:53.529Z,38.50
2022-09-13T15:04:28.179Z,37.70
2022-09-13T15:06:05.472Z,37.30
2022-09-13T15:07:42.320Z,37.50
2022-09-13T15:09:29.319Z,37.40
2022-09-13T15:11:05.904Z,37.70
2022-09-13T15:12:51.357Z,38.00
2022-09-13T15:14:28.812Z,38.30
2022-09-13T15:16:02.727Z,38.40
2022-09-13T15:17:58.771Z,38.30
2022-09-13T15:19:40.185Z,38.60
2022-09-13T15:21:19.125Z,39.00
2022-09-13T15:22:53.814Z,38.70
2022-09-13T15:24:33.178Z,39.20
2022-09-13T15:26:10.059Z,40.00
2022-09-13T15:27:48.389Z,39.60
2022-09-13T15:29:21.871Z,39.40
2022-09-13T15:30:59.001Z,39.40
2022-09-13T15:32:35.962Z,39.40
2022-09-13T15:34:14.464Z,39.40
2022-09-13T15:35:48.753Z,39.40
2022-09-13T15:37:43.482Z,39.40
2022-09-13T15:39:20.008Z,39.20
2022-09-13T15:41:04.208Z,39.30
2022-09-13T15:42:37.614Z,39.90
2022-09-13T15:44:11.653Z,40.20
2022-09-13T15:45:46.236Z,40.70
2022-09-13T15:47:24.518Z,40.70
2022-09-13T15:49:08.072Z,40.90
2022-09-13T15:51:10.150Z,41.30
2022-09-13T15:52:45.821Z,41.80
2022-09-13T15:54:24.000Z,41.80
2022-09-13T15:55:59.166Z,42.10
2022-09-13T15:57:35.710Z,42.40
2022-09-13T15:59:11.656Z,42.90
2022-09-13T16:00:50.773Z,42.70
2022-09-13T16:02:35.578Z,42.80
2022-09-13T16:04:13.229Z,43.10
2022-09-13T16:05:53.433Z,42.70
2022-09-13T16:07:29.790Z,43.10
2022-09-13T16:09:09.012Z,43.90
2022-09-13T16:10:45.847Z,44.10
2022-09-13T16:12:26.960Z,44.00
2022-09-13T16:14:02.006Z,43.60
2022-09-13T16:15:36.183Z,43.70
2022-09-13T16:17:16.732Z,43.40
2022-09-13T16:18:50.650Z,43.60
2022-09-13T16:20:24.123Z,44.30
2022-09-13T16:21:57.401Z,43.90
2022-09-13T16:23:31.019Z,44.70
2022-09-13T16:25:04.511Z,44.60
2022-09-13T16:26:39.395Z,44.30
2022-09-13T16:28:20.803Z,45.30
2022-09-13T16:29:56.247Z,46.30
2022-09-13T16:31:28.805Z,46.40
2022-09-13T16:33:02.612Z,45.50
2022-09-13T16:34:36.339Z,46.10
2022-09-13T16:36:13.231Z,46.20
2022-09-13T16:37:51.312Z,46.50
2022-09-13T16:39:25.067Z,46.10
2022-09-13T16:40:58.656Z,46.60
2022-09-13T16:42:31.557Z,47.10
2022-09-13T16:44:05.520Z,47.10
2022-09-13T16:45:42.877Z,46.60
2022-09-13T16:47:16.213Z,47.30
2022-09-13T16:48:55.575Z,47.30
2022-09-13T16:50:32.049Z,47.10
2022-09-13T16:52:09.428Z,47.60
2022-09-13T16:53:43.876Z,47.70
2022-09-13T16:55:17.484Z,47.70
2022-09-13T16:56:50.953Z,47.90
2022-09-13T16:58:24.297Z,48.40
2022-09-13T16:59:58.806Z,48.20
2022-09-13T17:01:33.816Z,48.40
2022-09-13T17:03:07.215Z,48.50
2022-09-13T17:04:41.021Z,48.50
2022-09-13T17:06:18.341Z,48.60
2022-09-13T17:07:53.510Z,48.80
2022-09-13T17:09:27.596Z,48.70
2022-09-13T17:11:01.765Z,48.80
2022-09-13T17:12:35.705Z,48.90
2022-09-13T17:14:14.623Z,48.90
2022-09-13T17:15:48.019Z,49.10
2022-09-13T17:17:22.612Z,49.10
2022-09-13T17:18:58.217Z,49.40
2022-09-13T17:20:31.425Z,49.40
2022-09-13T17:22:08.025Z,49.40
2022-09-13T17:23:41.671Z,49.40
2022-09-13T17:25:16.036Z,49.30
2022-09-13T17:26:49.517Z,49.40
2022-09-13T17:28:23.104Z,49.40
2022-09-13T17:29:56.426Z,49.40
2022-09-13T17:31:30.042Z,49.50
2022-09-13T17:33:06.005Z,49.60
2022-09-13T17:34:39.425Z,49.80
2022-09-13T17:36:15.650Z,49.90
2022-09-13T17:37:49.286Z,50.00
2022-09-13T17:39:23.049Z,49.90
2022-09-13T17:41:05.965Z,50.00
2022-09-13T17:42:39.197Z,50.40
2022-09-13T17:44:12.958Z,50.30
2022-09-13T17:45:46.688Z,50.50
2022-09-13T17:47:20.128Z,50.70
2022-09-13T17:48:56.848Z,50.90
2022-09-13T17:50:30.637Z,51.30
2022-09-13T17:52:04.845Z,51.30
2022-09-13T17:53:40.448Z,51.40
2022-09-13T17:55:14.018Z,51.60
2022-09-13T17:56:47.482Z,51.70
2022-09-13T17:58:20.764Z,51.90
2022-09-13T17:59:55.026Z,52.00
2022-09-13T18:01:28.482Z,52.10
2022-09-13T18:03:03.606Z,52.40
2022-09-13T18:04:38.607Z,52.30
2022-09-13T18:06:14.495Z,52.40
2022-09-13T18:07:48.325Z,52.40
2022-09-13T18:09:22.352Z,52.30
2022-09-13T18:11:12.392Z,52.50
2022-09-13T18:12:47.199Z,52.60
2022-09-13T18:14:21.452Z,52.60
2022-09-13T18:16:03.643Z,52.80
2022-09-13T18:17:37.240Z,53.20
2022-09-13T18:19:11.580Z,52.90
2022-09-13T18:20:48.162Z,53.00
2022-09-13T18:22:21.866Z,53.30
2022-09-13T18:23:59.026Z,53.20
2022-09-13T18:25:33.231Z,53.40
2022-09-13T18:27:07.076Z,53.40
2022-09-13T18:28:40.554Z,53.70
2022-09-13T18:30:14.572Z,53.80
2022-09-13T18:31:47.989Z,53.90
2022-09-13T18:33:22.631Z,54.00
2022-09-13T18:34:56.216Z,54.30
2022-09-13T18:36:34.072Z,54.40
2022-09-13T18:38:07.432Z,54.70
2022-09-13T18:39:41.022Z,54.70
2022-09-13T18:41:18.620Z,54.70
2022-09-13T18:42:53.078Z,54.90
2022-09-13T18:44:30.160Z,55.50
2022-09-13T18:46:07.178Z,55.00
2022-09-13T18:47:40.596Z,55.00
2022-09-13T18:49:14.983Z,55.00
2022-09-13T18:50:48.288Z,55.10
2022-09-13T18:52:22.870Z,55.10
2022-09-13T18:53:57.257Z,55.20
2022-09-13T18:55:30.521Z,55.30
2022-09-13T18:57:04.253Z,55.30
2022-09-13T18:58:39.945Z,55.40
2022-09-13T19:00:13.817Z,55.50
2022-09-13T19:01:48.869Z,55.50
2022-09-13T19:03:22.839Z,55.60
2022-09-13T19:04:56.694Z,55.70
2022-09-13T19:06:33.774Z,55.80
2022-09-13T19:08:11.505Z,55.90
2022-09-13T19:09:44.905Z,56.20
2022-09-13T19:11:44.801Z,56.00
2022-09-13T19:13:13.960Z,56.20
2022-09-13T19:14:47.457Z,56.10
2022-09-13T19:16:21.921Z,56.10
2022-09-13T19:17:55.322Z,56.20
2022-09-13T19:19:30.749Z,56.20
2022-09-13T19:21:07.317Z,56.20
2022-09-13T19:22:40.554Z,56.40
2022-09-13T19:24:19.037Z,56.40
2022-09-13T19:25:53.348Z,56.60
2022-09-13T19:27:26.718Z,56.50
2022-09-13T19:29:06.079Z,56.70
2022-09-13T19:30:39.703Z,56.80
2022-09-13T19:32:23.790Z,56.90
2022-09-13T19:33:59.124Z,57.10
2022-09-13T19:35:37.130Z,57.10
2022-09-13T19:37:10.674Z,57.10
2022-09-13T19:38:44.983Z,57.20
2022-09-13T19:40:20.058Z,57.30
2022-09-13T19:41:53.522Z,57.50
2022-09-13T19:43:29.389Z,57.50
2022-09-13T19:45:02.739Z,57.60
2022-09-13T19:46:39.369Z,57.50
2022-09-13T19:48:37.698Z,57.60
2022-09-13T19:50:08.474Z,57.60
2022-09-13T19:51:45.551Z,57.70
2022-09-13T19:53:35.502Z,57.90
2022-09-13T19:55:16.579Z,58.00
2022-09-13T19:56:52.017Z,57.90
2022-09-13T19:58:25.730Z,58.10
2022-09-13T19:59:59.685Z,58.70
2022-09-13T20:01:36.069Z,58.70
2022-09-13T20:03:10.353Z,58.90
2022-09-13T20:04:43.910Z,58.80
2022-09-13T20:06:18.310Z,58.90
2022-09-13T20:07:51.637Z,58.90
2022-09-13T20:09:25.849Z,58.90
2022-09-13T20:10:59.985Z,59.00
2022-09-13T20:12:36.128Z,59.10
2022-09-13T20:14:09.604Z,59.10
2022-09-13T20:15:42.883Z,59.20
2022-09-13T20:17:16.240Z,59.40
2022-09-13T20:18:49.698Z,59.40
2022-09-13T20:20:26.040Z,59.50
2022-09-13T20:21:58.396Z,59.60
2022-09-13T20:23:32.847Z,59.60
2022-09-13T20:25:08.523Z,59.80
2022-09-13T20:26:42.665Z,60.00
2022-09-13T20:28:19.232Z,60.00
2022-09-13T20:29:52.660Z,60.10
2022-09-13T20:31:27.203Z,60.00
2022-09-13T20:33:04.541Z,60.10
2022-09-13T20:34:40.784Z,60.30
2022-09-13T20:36:15.544Z,60.40
2022-09-13T20:37:49.307Z,60.60
2022-09-13T20:39:22.724Z,60.70
2022-09-13T20:40:56.733Z,60.60
2022-09-13T20:42:33.476Z,60.50
2022-09-13T20:44:08.570Z,60.50
2022-09-13T20:45:42.527Z,60.50
2022-09-13T20:47:15.992Z,60.60
2022-09-13T20:48:50.411Z,60.70
2022-09-13T20:50:23.996Z,61.00
2022-09-13T20:51:57.188Z,61.10
2022-09-13T20:53:31.636Z,61.20
2022-09-13T20:55:05.636Z,61.40
2022-09-13T20:56:39.064Z,61.40
2022-09-13T20:58:12.579Z,61.50
2022-09-13T20:59:47.234Z,61.50
2022-09-13T21:01:21.657Z,61.60
2022-09-13T21:02:55.287Z,61.60
2022-09-13T21:04:31.979Z,61.70
2022-09-13T21:06:09.566Z,61.60
2022-09-13T21:08:00.781Z,61.70
2022-09-13T21:09:36.004Z,61.70
2022-09-13T21:11:12.681Z,61.90
2022-09-13T21:12:53.049Z,61.90
2022-09-13T21:14:32.338Z,62.10
2022-09-13T21:16:09.968Z,61.90
2022-09-13T21:17:47.480Z,62.20
2022-09-13T21:19:20.872Z,62.20
2022-09-13T21:20:58.442Z,62.20
2022-09-13T21:22:32.488Z,62.30
2022-09-13T21:24:09.485Z,62.30
2022-09-13T21:25:42.746Z,62.60